CheckWX is a tool to help pilots better visualize weather data.  It is not intended as a substitute for an official pre-flight weather briefing.

02:56:24 UTC

KAGC METAR
Allegheny County Airport
Pittsburgh, Pennsylvania, USA
Current

1 hour ago

KAGC 210153Z AUTO 15003KT 10SM CLR 23/16 A3021 RMK AO2 SLP229 T02280156
Observed
Sep-21 @ 01:53 UTC
Wind
  • 150° at 3 KTS
Visibility
10 SM
Flight Rules
VFR
Cloud Levels
  • Clear skies
Temperature
23°C / 73°F
Dewpoint
16°C / 61°F
Humidity
65%
Altimeter
30.21" Hg
Pressure
1023.02 hPa
Previous

2 hours ago

KAGC 210053Z 13003KT 10SM CLR 23/16 A3019 RMK AO2 SLP224 T02330156
Observed
Sep-21 @ 00:53 UTC
Wind
  • 130° at 3 KTS
Visibility
10 SM
Flight Rules
VFR
Cloud Levels
  • Clear skies
Temperature
23°C / 73°F
Dewpoint
16°C / 61°F
Humidity
65%
Altimeter
30.19" Hg
Pressure
1022.32 hPa
Previous

3 hours ago

KAGC 202353Z 13003KT 10SM CLR 24/16 A3019 RMK AO2 SLP223 T02440156 10272 20244 53003
Observed
Sep-20 @ 23:53 UTC
Wind
  • 130° at 3 KTS
Visibility
10 SM
Flight Rules
VFR
Cloud Levels
  • Clear skies
Temperature
24°C / 75°F
Dewpoint
16°C / 61°F
Humidity
61%
Altimeter
30.19" Hg
Pressure
1022.32 hPa